Western Springs, Illinois
Current Conditions -  °F | °C
As of 6:53 AM on Wednesday 26 Nov 2014 (Local Time) from KMDW Reporting Station
Haze Haze  
Wind Chill: 18°   Ceiling: 1800
Heat Index: 24°   Visibility: 5mi
Dew Point: 19°   Wind: 5mph
Humidity: 81%   Direction: 180°S
Pressure: 30.16"   Gusts: NA
Location:  41.81°N, 87.9°W
Report Text: KMDW 261253Z 18004KT 5SM HZ OVC018 M04/M07 A3016 RMK AO2 SLP227 T10441072
Loading
Personal Weather Stations






























Interactive Weather Map New forecast layout! Learn more

10-Day Weather Forecast

Advertisements
Track Severe Weather on mobile